createdAt,value
2023-01-15T00:02:23.189Z,2.35
2023-01-15T00:04:53.979Z,2.22
2023-01-15T00:07:23.679Z,2.97
2023-01-15T00:09:52.363Z,3.05
2023-01-15T00:12:20.612Z,2.40
2023-01-15T00:14:48.929Z,2.45
2023-01-15T00:17:17.348Z,2.45
2023-01-15T00:19:45.574Z,2.50
2023-01-15T00:22:15.342Z,2.50
2023-01-15T00:25:01.101Z,2.63
2023-01-15T00:27:41.793Z,4.25
2023-01-15T00:30:13.939Z,2.20
2023-01-15T00:32:42.844Z,2.28
2023-01-15T00:35:14.884Z,2.50
2023-01-15T00:37:44.670Z,2.38
2023-01-15T00:40:15.236Z,2.13
2023-01-15T00:42:43.549Z,2.72
2023-01-15T00:45:22.632Z,2.58
2023-01-15T00:47:51.569Z,2.05
2023-01-15T00:50:19.940Z,2.38
2023-01-15T00:52:49.497Z,2.15
2023-01-15T00:55:17.842Z,2.53
2023-01-15T00:57:46.093Z,2.22
2023-01-15T01:00:15.417Z,2.30
2023-01-15T01:02:43.688Z,2.15
2023-01-15T01:05:11.967Z,2.90
2023-01-15T01:07:40.252Z,2.67
2023-01-15T01:10:11.383Z,2.58
2023-01-15T01:12:39.707Z,2.42
2023-01-15T01:15:10.014Z,2.40
2023-01-15T01:17:38.860Z,2.22
2023-01-15T01:20:08.920Z,2.20
2023-01-15T01:22:37.458Z,2.55
2023-01-15T01:25:06.527Z,2.88
2023-01-15T01:27:36.563Z,2.72
2023-01-15T01:30:05.500Z,1.90
2023-01-15T01:32:33.707Z,2.78
2023-01-15T01:35:02.098Z,2.72
2023-01-15T01:37:30.378Z,1.88
2023-01-15T01:39:58.594Z,2.58
2023-01-15T01:42:27.003Z,2.70
2023-01-15T01:45:13.101Z,2.33
2023-01-15T01:47:41.835Z,2.28
2023-01-15T01:50:13.653Z,2.28
2023-01-15T01:52:46.595Z,2.75
2023-01-15T01:55:18.047Z,2.80
2023-01-15T01:57:48.407Z,2.38
2023-01-15T02:00:18.684Z,2.67
2023-01-15T02:02:49.023Z,1.85
2023-01-15T02:05:26.615Z,1.80
2023-01-15T02:07:55.035Z,2.30
2023-01-15T02:10:24.171Z,2.90
2023-01-15T02:13:01.399Z,2.08
2023-01-15T02:15:37.636Z,2.50
2023-01-15T02:18:14.649Z,2.78
2023-01-15T02:20:49.738Z,2.35
2023-01-15T02:23:35.343Z,1.63
2023-01-15T02:26:20.171Z,2.10
2023-01-15T02:28:54.779Z,2.78
2023-01-15T02:31:29.258Z,2.05
2023-01-15T02:34:03.591Z,2.30
2023-01-15T02:36:37.196Z,2.15
2023-01-15T02:39:10.176Z,2.25
2023-01-15T02:41:43.725Z,2.13
2023-01-15T02:44:17.774Z,1.92
2023-01-15T02:46:47.528Z,1.58
2023-01-15T02:49:19.605Z,1.92
2023-01-15T02:51:55.350Z,2.00
2023-01-15T02:54:27.676Z,1.65
2023-01-15T02:57:00.458Z,2.05
2023-01-15T02:59:36.596Z,2.10
2023-01-15T03:02:11.133Z,2.60
2023-01-15T03:04:44.508Z,1.60
2023-01-15T03:07:21.224Z,1.90
2023-01-15T03:09:50.456Z,1.80
2023-01-15T03:12:25.356Z,2.30
2023-01-15T03:15:06.607Z,2.30
2023-01-15T03:17:40.707Z,2.50
2023-01-15T03:20:16.148Z,2.10
2023-01-15T03:22:49.857Z,2.40
2023-01-15T03:25:24.203Z,2.88
2023-01-15T03:27:57.656Z,2.22
2023-01-15T03:30:27.323Z,2.67
2023-01-15T03:32:56.296Z,2.03
2023-01-15T03:35:48.255Z,2.45
2023-01-15T03:38:19.649Z,2.20
2023-01-15T03:40:55.766Z,2.33
2023-01-15T03:43:43.008Z,2.33
2023-01-15T03:46:28.086Z,2.75
2023-01-15T03:49:02.821Z,2.22
2023-01-15T03:51:39.136Z,2.20
2023-01-15T03:54:13.018Z,2.20
2023-01-15T03:56:55.700Z,2.00
2023-01-15T04:00:44.253Z,2.20
2023-01-15T04:03:17.068Z,1.73
2023-01-15T04:05:45.904Z,2.17
2023-01-15T04:08:17.871Z,1.52
2023-01-15T04:10:57.517Z,2.28
2023-01-15T04:13:26.520Z,2.28
2023-01-15T04:15:56.616Z,1.80
2023-01-15T04:18:27.260Z,2.75
2023-01-15T04:20:55.956Z,1.85
2023-01-15T04:23:24.834Z,2.83
2023-01-15T04:25:53.139Z,2.03
2023-01-15T04:28:21.763Z,1.98
2023-01-15T04:30:50.256Z,2.10
2023-01-15T04:33:18.716Z,2.20
2023-01-15T04:35:48.444Z,2.05
2023-01-15T04:38:17.975Z,1.95
2023-01-15T04:41:04.114Z,2.15
2023-01-15T04:43:50.025Z,2.38
2023-01-15T04:46:23.075Z,2.28
2023-01-15T04:48:51.616Z,2.38
2023-01-15T04:51:21.433Z,2.10
2023-01-15T04:53:49.770Z,2.10
2023-01-15T04:56:18.455Z,2.67
2023-01-15T04:58:46.808Z,2.00
2023-01-15T05:01:17.042Z,2.65
2023-01-15T05:03:45.492Z,1.85
2023-01-15T05:06:14.512Z,1.98
2023-01-15T05:08:44.292Z,1.95
2023-01-15T05:11:13.715Z,1.95
2023-01-15T05:13:42.068Z,2.17
2023-01-15T05:16:16.309Z,1.98
2023-01-15T05:18:46.244Z,1.95
2023-01-15T05:21:22.194Z,1.80
2023-01-15T05:23:54.673Z,1.83
2023-01-15T05:26:24.198Z,2.00
2023-01-15T05:28:55.978Z,2.00
2023-01-15T05:31:25.275Z,1.70
2023-01-15T05:33:55.222Z,1.90
2023-01-15T05:36:27.124Z,2.00
2023-01-15T05:38:59.733Z,1.73
2023-01-15T05:41:46.588Z,1.75
2023-01-15T05:44:15.866Z,1.90
2023-01-15T05:46:45.728Z,1.55
2023-01-15T05:49:16.865Z,1.90
2023-01-15T05:51:46.432Z,1.77
2023-01-15T05:54:22.145Z,1.83
2023-01-15T05:56:50.489Z,1.77
2023-01-15T05:59:22.163Z,1.90
2023-01-15T06:01:50.958Z,1.88
2023-01-15T06:04:21.245Z,1.80
2023-01-15T06:06:51.458Z,2.60
2023-01-15T06:09:23.209Z,1.73
2023-01-15T06:11:53.723Z,2.50
2023-01-15T06:14:22.053Z,1.92
2023-01-15T06:16:50.302Z,1.70
2023-01-15T06:19:18.676Z,2.28
2023-01-15T06:21:47.085Z,1.77
2023-01-15T06:24:16.753Z,2.20
2023-01-15T06:26:46.527Z,1.73
2023-01-15T06:29:18.653Z,2.05
2023-01-15T06:31:47.633Z,1.73
2023-01-15T06:34:16.066Z,1.88
2023-01-15T06:36:44.443Z,1.70
2023-01-15T06:39:12.680Z,1.65
2023-01-15T06:41:58.309Z,2.00
2023-01-15T06:44:45.848Z,1.65
2023-01-15T06:47:24.262Z,1.60
2023-01-15T06:49:55.708Z,1.42
2023-01-15T06:52:25.707Z,1.73
2023-01-15T06:54:54.402Z,1.92
2023-01-15T06:57:23.005Z,2.10
2023-01-15T06:59:53.360Z,2.30
2023-01-15T07:02:22.349Z,1.65
2023-01-15T07:04:50.788Z,1.80
2023-01-15T07:07:21.524Z,1.63
2023-01-15T07:09:50.098Z,1.73
2023-01-15T07:12:18.770Z,1.13
2023-01-15T07:14:46.945Z,1.50
2023-01-15T07:17:16.937Z,1.98
2023-01-15T07:19:46.304Z,1.92
2023-01-15T07:22:14.956Z,1.40
2023-01-15T07:24:46.170Z,1.88
2023-01-15T07:27:14.629Z,1.65
2023-01-15T07:29:42.960Z,1.52
2023-01-15T07:32:12.570Z,1.77
2023-01-15T07:34:42.310Z,1.58
2023-01-15T07:37:10.578Z,1.73
2023-01-15T07:39:38.959Z,1.70
2023-01-15T07:42:24.576Z,2.13
2023-01-15T07:45:10.295Z,1.60
2023-01-15T07:47:58.139Z,2.13
2023-01-15T07:50:27.891Z,1.60
2023-01-15T07:52:56.311Z,2.05
2023-01-15T07:55:25.359Z,2.13
2023-01-15T07:57:53.934Z,1.80
2023-01-15T08:00:25.039Z,2.08
2023-01-15T08:02:53.369Z,2.25
2023-01-15T08:05:21.786Z,2.22
2023-01-15T08:07:51.603Z,1.50
2023-01-15T08:10:20.772Z,2.92
2023-01-15T08:13:09.050Z,1.83
2023-01-15T08:15:44.019Z,2.17
2023-01-15T08:18:12.884Z,2.05
2023-01-15T08:20:41.170Z,1.80
2023-01-15T08:23:10.902Z,2.83
2023-01-15T08:25:39.318Z,2.28
2023-01-15T08:28:07.817Z,2.22
2023-01-15T08:30:36.428Z,2.13
2023-01-15T08:33:04.937Z,2.72
2023-01-15T08:35:34.482Z,4.00
2023-01-15T08:38:07.460Z,4.70
2023-01-15T08:40:58.655Z,3.47
2023-01-15T08:43:27.553Z,2.40
2023-01-15T08:45:59.116Z,2.08
2023-01-15T08:48:29.498Z,2.75
2023-01-15T08:50:57.853Z,2.95
2023-01-15T08:53:26.788Z,2.47
2023-01-15T08:55:56.618Z,2.28
2023-01-15T08:58:25.592Z,2.30
2023-01-15T09:00:53.869Z,2.20
2023-01-15T09:03:25.055Z,1.80
2023-01-15T09:05:53.469Z,3.25
2023-01-15T09:08:21.646Z,3.05
2023-01-15T09:10:52.248Z,1.73
2023-01-15T09:13:22.183Z,2.15
2023-01-15T09:15:50.489Z,2.03
2023-01-15T09:18:20.470Z,1.70
2023-01-15T09:20:49.372Z,2.13
2023-01-15T09:23:17.957Z,2.20
2023-01-15T09:25:53.966Z,2.25
2023-01-15T09:28:23.785Z,2.65
2023-01-15T09:30:52.392Z,2.45
2023-01-15T09:33:21.096Z,2.72
2023-01-15T09:35:49.778Z,2.20
2023-01-15T09:38:21.097Z,1.90
2023-01-15T09:40:52.495Z,2.25
2023-01-15T09:43:47.937Z,2.45
2023-01-15T09:46:23.316Z,1.92
2023-01-15T09:49:04.198Z,2.40
2023-01-15T09:51:43.377Z,2.90
2023-01-15T09:54:25.011Z,2.30
2023-01-15T09:56:53.813Z,2.10
2023-01-15T09:59:35.013Z,2.30
2023-01-15T10:02:19.516Z,2.10
2023-01-15T10:04:52.960Z,1.92
2023-01-15T10:07:29.998Z,1.70
2023-01-15T10:10:03.254Z,2.53
2023-01-15T10:12:38.115Z,1.98
2023-01-15T10:15:24.028Z,2.10
2023-01-15T10:17:55.651Z,2.40
2023-01-15T10:20:43.763Z,2.10
2023-01-15T10:23:33.856Z,1.92
2023-01-15T10:26:17.796Z,1.73
2023-01-15T10:29:07.825Z,2.10
2023-01-15T10:31:54.056Z,2.03
2023-01-15T10:35:08.129Z,2.15
2023-01-15T10:38:00.536Z,2.50
2023-01-15T10:41:11.094Z,1.92
2023-01-15T10:43:51.296Z,2.20
2023-01-15T10:46:24.772Z,2.70
2023-01-15T10:48:58.521Z,2.45
2023-01-15T10:51:39.093Z,2.38
2023-01-15T10:54:16.421Z,2.47
2023-01-15T10:56:51.438Z,2.33
2023-01-15T10:59:25.319Z,2.30
2023-01-15T11:01:55.622Z,2.78
2023-01-15T11:04:28.673Z,2.13
2023-01-15T11:06:56.970Z,2.00
2023-01-15T11:09:31.391Z,2.50
2023-01-15T11:12:36.749Z,1.98
2023-01-15T11:15:33.958Z,2.15
2023-01-15T11:18:22.060Z,2.75
2023-01-15T11:20:51.886Z,2.47
2023-01-15T11:23:23.295Z,2.35
2023-01-15T11:25:55.299Z,2.17
2023-01-15T11:28:36.460Z,2.10
2023-01-15T11:31:04.916Z,2.47
2023-01-15T11:33:33.148Z,1.90
2023-01-15T11:36:06.148Z,2.47
2023-01-15T11:38:47.005Z,2.15
2023-01-15T11:41:24.424Z,1.98
2023-01-15T11:44:15.124Z,2.20
2023-01-15T11:47:04.458Z,2.13
2023-01-15T11:49:50.419Z,1.85
2023-01-15T11:52:24.652Z,2.55
2023-01-15T11:54:55.726Z,2.13
2023-01-15T11:57:29.909Z,1.80
2023-01-15T11:59:59.061Z,2.58
2023-01-15T12:02:39.911Z,2.13
2023-01-15T12:05:17.058Z,2.33
2023-01-15T12:07:52.829Z,2.50
2023-01-15T12:10:45.371Z,2.25
2023-01-15T12:13:26.398Z,1.67
2023-01-15T12:16:04.230Z,2.28
2023-01-15T12:18:57.278Z,2.97
2023-01-15T12:21:59.114Z,2.17
2023-01-15T12:25:17.014Z,1.80
2023-01-15T12:28:05.066Z,2.33
2023-01-15T12:31:01.374Z,2.47
2023-01-15T12:33:43.950Z,1.88
2023-01-15T12:36:20.378Z,2.33
2023-01-15T12:38:55.765Z,2.22
2023-01-15T12:41:51.997Z,2.70
2023-01-15T12:44:46.302Z,2.75
2023-01-15T12:47:23.973Z,2.55
2023-01-15T12:49:59.147Z,2.15
2023-01-15T12:52:35.602Z,1.98
2023-01-15T12:55:17.632Z,2.05
2023-01-15T12:57:52.378Z,1.90
2023-01-15T13:00:26.526Z,1.75
2023-01-15T13:03:11.657Z,2.70
2023-01-15T13:05:48.526Z,2.42
2023-01-15T13:08:24.987Z,2.40
2023-01-15T13:10:54.184Z,2.60
2023-01-15T13:13:26.601Z,2.33
2023-01-15T13:16:15.123Z,2.83
2023-01-15T13:18:57.707Z,3.05
2023-01-15T13:21:28.724Z,2.47
2023-01-15T13:24:26.993Z,2.10
2023-01-15T13:27:25.336Z,2.60
2023-01-15T13:30:17.284Z,2.10
2023-01-15T13:32:51.026Z,1.88
2023-01-15T13:35:30.419Z,1.80
2023-01-15T13:38:01.920Z,2.05
2023-01-15T13:40:35.769Z,2.85
2023-01-15T13:43:05.943Z,2.08
2023-01-15T13:45:51.575Z,2.30
2023-01-15T13:48:26.664Z,2.67
2023-01-15T13:50:57.542Z,2.55
2023-01-15T13:53:30.368Z,2.28
2023-01-15T13:56:05.599Z,2.22
2023-01-15T13:58:36.408Z,2.50
2023-01-15T14:01:23.178Z,1.88
2023-01-15T14:04:04.178Z,2.65
2023-01-15T14:06:44.737Z,1.98
2023-01-15T14:09:15.023Z,2.38
2023-01-15T14:12:03.048Z,2.85
2023-01-15T14:14:55.560Z,2.55
2023-01-15T14:17:59.619Z,2.22
2023-01-15T14:20:44.706Z,2.60
2023-01-15T14:23:29.608Z,3.80
2023-01-15T14:26:11.890Z,2.63
2023-01-15T14:29:16.757Z,2.53
2023-01-15T14:31:58.241Z,2.35
2023-01-15T14:34:31.153Z,2.80
2023-01-15T14:37:01.985Z,2.22
2023-01-15T14:39:37.860Z,2.83
2023-01-15T14:42:30.702Z,3.17
2023-01-15T14:45:04.023Z,2.33
2023-01-15T14:47:37.794Z,2.85
2023-01-15T14:50:31.307Z,2.72
2023-01-15T14:53:06.910Z,2.63
2023-01-15T14:55:48.519Z,2.97
2023-01-15T14:58:32.256Z,2.42
2023-01-15T15:01:14.758Z,2.55
2023-01-15T15:03:52.396Z,2.20
2023-01-15T15:06:23.068Z,2.17
2023-01-15T15:08:53.047Z,2.33
2023-01-15T15:11:51.156Z,2.72
2023-01-15T15:14:21.672Z,2.22
2023-01-15T15:16:53.944Z,2.10
2023-01-15T15:19:29.677Z,2.50
2023-01-15T15:22:05.172Z,2.05
2023-01-15T15:24:36.717Z,1.77
2023-01-15T15:27:21.661Z,2.17
2023-01-15T15:30:10.813Z,2.08
2023-01-15T15:32:41.342Z,1.98
2023-01-15T15:35:26.708Z,2.60
2023-01-15T15:37:59.120Z,1.77
2023-01-15T15:40:36.909Z,2.10
2023-01-15T15:43:34.356Z,2.30
2023-01-15T15:46:34.846Z,2.75
2023-01-15T15:49:09.252Z,2.97
2023-01-15T15:51:41.186Z,2.58
2023-01-15T15:54:17.223Z,2.65
2023-01-15T15:57:00.785Z,2.35
2023-01-15T15:59:35.629Z,2.58
2023-01-15T16:02:27.608Z,2.50
2023-01-15T16:04:59.445Z,1.95
2023-01-15T16:07:33.712Z,2.70
2023-01-15T16:10:16.764Z,2.33
2023-01-15T16:13:02.513Z,2.75
2023-01-15T16:15:35.742Z,2.70
2023-01-15T16:18:05.999Z,2.78
2023-01-15T16:20:41.159Z,2.75
2023-01-15T16:23:38.449Z,2.47
2023-01-15T16:26:33.586Z,2.45
2023-01-15T16:29:06.763Z,2.05
2023-01-15T16:31:37.134Z,2.53
2023-01-15T16:34:12.697Z,2.58
2023-01-15T16:36:45.983Z,3.60
2023-01-15T16:39:26.236Z,9.48
2023-01-15T16:42:14.158Z,2.78
2023-01-15T17:27:11.093Z,2.60
2023-01-15T17:29:40.228Z,2.50
2023-01-15T17:32:18.070Z,2.90
2023-01-15T17:34:47.840Z,3.10
2023-01-15T17:37:17.745Z,3.05
2023-01-15T17:39:46.540Z,3.25
2023-01-15T17:42:28.579Z,2.90
2023-01-15T17:44:57.954Z,2.80
2023-01-15T17:47:27.208Z,2.47
2023-01-15T17:49:56.260Z,3.42
2023-01-15T17:52:38.889Z,3.88
2023-01-15T17:55:29.578Z,2.80
2023-01-15T17:58:17.889Z,2.28
2023-01-15T18:01:06.795Z,2.33
2023-01-15T18:04:14.940Z,2.30
2023-01-15T18:06:49.341Z,2.10
2023-01-15T18:09:20.681Z,2.78
2023-01-15T18:11:53.300Z,1.60
2023-01-15T18:14:26.415Z,1.50
2023-01-15T18:16:56.837Z,1.58
2023-01-15T18:19:29.367Z,1.90
2023-01-15T18:22:31.479Z,1.80
2023-01-15T18:25:00.472Z,1.95
2023-01-15T18:27:30.365Z,2.10
2023-01-15T18:30:01.659Z,2.05
2023-01-15T18:32:31.346Z,1.80
2023-01-15T18:35:04.719Z,2.08
2023-01-15T18:37:36.315Z,1.92
2023-01-15T18:40:06.098Z,2.03
2023-01-15T18:42:57.883Z,2.28
2023-01-15T18:45:48.135Z,2.00
2023-01-15T18:48:25.204Z,2.17
2023-01-15T18:51:02.002Z,1.95
2023-01-15T18:53:31.406Z,2.15
2023-01-15T18:56:11.592Z,1.92
2023-01-15T18:58:56.698Z,1.70
2023-01-15T19:29:56.916Z,1.17
2023-01-15T19:32:42.388Z,1.58
2023-01-15T19:35:12.462Z,1.45
2023-01-15T19:37:43.633Z,1.83
2023-01-15T19:40:20.339Z,1.60
2023-01-15T19:43:15.518Z,1.58
2023-01-15T19:46:05.245Z,1.60
2023-01-15T19:48:55.503Z,1.58
2023-01-15T19:51:46.979Z,1.38
2023-01-15T19:54:38.847Z,1.80
2023-01-15T19:58:02.141Z,1.80
2023-01-15T20:04:31.524Z,1.90
2023-01-15T20:07:00.512Z,1.80
2023-01-15T20:09:54.789Z,1.95
2023-01-15T20:12:56.082Z,1.90
2023-01-15T20:15:35.381Z,1.55
2023-01-15T20:18:14.980Z,1.50
2023-01-15T20:20:47.723Z,1.95
2023-01-15T20:26:27.750Z,1.42
2023-01-15T20:29:03.031Z,1.98
2023-01-15T20:35:55.508Z,3.20
2023-01-15T20:38:34.076Z,3.22
2023-01-15T20:41:22.103Z,3.35
2023-01-15T20:44:12.625Z,3.20
2023-01-15T20:46:53.587Z,4.38
2023-01-15T20:49:30.106Z,3.72
2023-01-15T20:52:13.773Z,3.90
2023-01-15T20:55:18.674Z,3.30
2023-01-15T20:58:17.015Z,3.60
2023-01-15T21:01:30.112Z,3.00
2023-01-15T21:03:59.133Z,3.70
2023-01-15T21:06:32.227Z,4.70
2023-01-15T21:09:19.612Z,3.78
2023-01-15T21:12:16.870Z,4.20
2023-01-15T21:15:17.520Z,4.40
2023-01-15T21:17:53.840Z,3.95
2023-01-15T21:23:45.941Z,4.55
2023-01-15T21:26:35.350Z,3.47
2023-01-15T21:31:48.783Z,3.85
2023-01-15T21:34:21.140Z,3.97
2023-01-15T21:36:50.645Z,4.05
2023-01-15T21:39:21.048Z,3.72
2023-01-15T21:42:09.616Z,3.88
2023-01-15T21:44:43.742Z,3.50
2023-01-15T21:47:14.566Z,3.70
2023-01-15T21:49:44.925Z,3.65
2023-01-15T21:52:20.259Z,3.50
2023-01-15T21:54:50.214Z,3.83
2023-01-15T21:57:22.667Z,3.33
2023-01-15T21:59:51.989Z,3.65
2023-01-15T22:03:00.904Z,2.92
2023-01-15T22:20:34.949Z,1.52
2023-01-15T22:23:53.265Z,1.95
2023-01-15T23:07:50.534Z,4.22
2023-01-15T23:10:33.939Z,4.35
2023-01-15T23:13:07.504Z,5.30
2023-01-15T23:15:36.991Z,4.97
2023-01-15T23:18:34.620Z,6.10
2023-01-15T23:21:05.458Z,5.45
2023-01-15T23:23:38.456Z,5.85
2023-01-15T23:26:08.895Z,6.38
2023-01-15T23:28:37.892Z,6.22
2023-01-15T23:31:06.727Z,6.53
2023-01-15T23:33:35.560Z,4.95
2023-01-15T23:36:05.989Z,4.60
2023-01-15T23:38:35.113Z,4.03
2023-01-15T23:41:10.364Z,3.40
2023-01-15T23:43:57.759Z,3.40
2023-01-15T23:46:36.330Z,3.67
2023-01-15T23:49:08.001Z,4.85
2023-01-15T23:51:38.171Z,5.90
2023-01-15T23:54:08.754Z,5.00
2023-01-15T23:56:39.041Z,4.78
2023-01-15T23:59:07.847Z,4.43
